createdAt,value
2022-08-03T00:03:35.150Z,22.96
2022-08-03T00:08:40.107Z,22.93
2022-08-03T00:13:42.377Z,22.90
2022-08-03T00:18:44.411Z,22.86
2022-08-03T00:23:51.804Z,22.82
2022-08-03T00:28:54.972Z,22.76
2022-08-03T00:33:58.936Z,22.73
2022-08-03T00:39:01.852Z,22.70
2022-08-03T00:44:04.165Z,22.66
2022-08-03T00:49:06.148Z,22.62
2022-08-03T00:54:08.103Z,22.60
2022-08-03T00:59:14.749Z,22.56
2022-08-03T01:04:16.852Z,22.51
2022-08-03T01:09:42.933Z,22.50
2022-08-03T01:15:00.531Z,22.44
2022-08-03T01:20:12.351Z,22.41
2022-08-03T01:25:48.214Z,22.37
2022-08-03T01:31:02.309Z,22.29
2022-08-03T01:36:08.017Z,22.23
2022-08-03T01:41:19.057Z,22.19
2022-08-03T01:46:23.137Z,22.17
2022-08-03T01:51:56.108Z,22.17
2022-08-03T01:56:56.979Z,22.15
2022-08-03T02:02:32.015Z,22.12
2022-08-03T02:07:24.861Z,22.09
2022-08-03T02:12:31.481Z,22.06
2022-08-03T02:17:38.524Z,22.03
2022-08-03T02:22:44.864Z,21.99
2022-08-03T02:27:55.041Z,21.97
2022-08-03T02:32:59.500Z,21.94
2022-08-03T02:38:04.622Z,21.91
2022-08-03T02:43:29.891Z,21.89
2022-08-03T02:48:37.449Z,21.86
2022-08-03T02:53:41.237Z,21.83
2022-08-03T02:58:46.065Z,21.80
2022-08-03T03:03:50.094Z,21.77
2022-08-03T03:08:59.453Z,21.75
2022-08-03T03:14:03.074Z,21.70
2022-08-03T03:19:08.825Z,21.66
2022-08-03T03:24:11.851Z,21.64
2022-08-03T03:29:13.873Z,21.62
2022-08-03T03:34:16.643Z,21.60
2022-08-03T03:39:18.695Z,21.59
2022-08-03T03:44:20.911Z,21.54
2022-08-03T03:49:23.139Z,21.51
2022-08-03T03:54:25.443Z,21.48
2022-08-03T03:59:31.234Z,21.48
2022-08-03T04:04:57.032Z,21.48
2022-08-03T04:10:17.829Z,21.51
2022-08-03T04:15:24.278Z,21.55
2022-08-03T04:20:32.885Z,21.59
2022-08-03T04:25:37.597Z,21.63
2022-08-03T04:30:48.066Z,21.69
2022-08-03T04:36:01.758Z,21.75
2022-08-03T04:41:12.436Z,21.83
2022-08-03T04:46:15.669Z,21.90
2022-08-03T04:51:18.004Z,21.98
2022-08-03T04:56:20.207Z,22.09
2022-08-03T05:01:23.269Z,22.17
2022-08-03T05:06:25.424Z,22.27
2022-08-03T05:11:27.802Z,22.36
2022-08-03T05:16:29.830Z,22.42
2022-08-03T05:21:50.347Z,22.51
2022-08-03T05:26:54.298Z,22.60
2022-08-03T05:31:56.750Z,22.72
2022-08-03T05:36:58.769Z,22.82
2022-08-03T05:42:01.055Z,22.94
2022-08-03T05:47:02.835Z,23.03
2022-08-03T05:52:14.750Z,23.13
2022-08-03T05:57:18.119Z,23.22
2022-08-03T06:02:20.675Z,23.34
2022-08-03T06:07:22.849Z,23.43
2022-08-03T06:12:25.109Z,23.55
2022-08-03T06:17:27.182Z,23.66
2022-08-03T06:22:47.686Z,23.75
2022-08-03T06:27:56.860Z,23.91
2022-08-03T06:32:58.686Z,24.09
2022-08-03T06:38:00.930Z,24.22
2022-08-03T06:43:04.225Z,24.36
2022-08-03T06:48:06.768Z,24.58
2022-08-03T06:53:19.749Z,24.80
2022-08-03T06:58:23.769Z,25.02
2022-08-03T07:03:25.816Z,25.24
2022-08-03T07:08:33.808Z,25.43
2022-08-03T07:13:36.871Z,25.60
2022-08-03T07:18:42.344Z,25.78
2022-08-03T07:23:44.197Z,25.96
2022-08-03T07:28:46.522Z,26.13
2022-08-03T07:33:48.619Z,26.33
2022-08-03T07:38:51.126Z,26.44
2022-08-03T07:43:53.208Z,26.57
2022-08-03T07:48:55.419Z,26.67
2022-08-03T07:53:58.135Z,26.80
2022-08-03T07:59:00.702Z,27.00
2022-08-03T08:04:02.988Z,27.12
2022-08-03T08:09:05.364Z,27.25
2022-08-03T08:14:08.310Z,27.32
2022-08-03T08:19:10.337Z,27.45
2022-08-03T08:24:18.063Z,27.59
2022-08-03T08:29:23.303Z,27.76
2022-08-03T08:34:25.395Z,27.88
2022-08-03T08:39:27.518Z,28.06
2022-08-03T08:44:30.306Z,28.18
2022-08-03T08:49:36.058Z,28.28
2022-08-03T08:54:45.904Z,28.32
2022-08-03T08:59:49.715Z,28.41
2022-08-03T09:04:54.134Z,28.53
2022-08-03T09:10:11.163Z,28.70
2022-08-03T09:16:00.825Z,28.78
2022-08-03T09:21:30.527Z,28.96
2022-08-03T09:26:38.254Z,29.13
2022-08-03T09:31:43.467Z,29.23
2022-08-03T09:36:48.373Z,29.33
2022-08-03T09:42:15.318Z,29.40
2022-08-03T09:47:29.659Z,29.50
2022-08-03T09:52:38.954Z,29.48
2022-08-03T09:57:50.639Z,29.54
2022-08-03T10:03:05.548Z,29.65
2022-08-03T10:08:15.866Z,29.81
2022-08-03T10:13:19.217Z,29.94
2022-08-03T10:18:21.067Z,29.97
2022-08-03T10:23:25.019Z,30.03
2022-08-03T10:28:32.966Z,30.13
2022-08-03T10:33:51.126Z,30.18
2022-08-03T10:38:57.162Z,30.25
2022-08-03T10:44:05.815Z,30.37
2022-08-03T10:49:08.740Z,30.55
2022-08-03T10:54:58.194Z,30.64
2022-08-03T11:00:03.156Z,30.55
2022-08-03T11:05:30.374Z,30.28
2022-08-03T11:10:32.543Z,30.19
2022-08-03T11:15:36.290Z,30.09
2022-08-03T11:20:56.054Z,30.14
2022-08-03T11:26:27.779Z,30.29
2022-08-03T11:31:52.663Z,30.39
2022-08-03T11:37:25.372Z,30.55
2022-08-03T11:42:33.450Z,30.68
2022-08-03T11:47:50.156Z,30.85
2022-08-03T11:52:55.021Z,30.90
2022-08-03T11:59:02.706Z,30.96
2022-08-03T12:03:22.344Z,31.06
2022-08-03T12:08:27.049Z,31.06
2022-08-03T12:14:36.660Z,31.05
2022-08-03T12:19:07.152Z,31.01
2022-08-03T12:24:09.582Z,31.03
2022-08-03T12:29:23.298Z,31.20
2022-08-03T12:34:47.607Z,31.21
2022-08-03T12:40:02.449Z,31.21
2022-08-03T12:45:21.581Z,31.25
2022-08-03T12:50:25.527Z,31.25
2022-08-03T12:55:57.135Z,31.24
2022-08-03T13:00:57.075Z,31.19
2022-08-03T13:05:59.320Z,31.23
2022-08-03T13:11:57.899Z,31.25
2022-08-03T13:16:50.861Z,31.24
2022-08-03T13:22:04.092Z,31.24
2022-08-03T13:28:11.075Z,31.25
2022-08-03T13:32:30.531Z,31.30
2022-08-03T13:37:32.887Z,31.36
2022-08-03T13:42:36.715Z,31.43
2022-08-03T13:47:39.516Z,31.49
2022-08-03T13:52:41.614Z,31.50
2022-08-03T13:58:03.970Z,31.52
2022-08-03T14:03:13.215Z,31.64
2022-08-03T14:08:16.337Z,31.76
2022-08-03T14:13:18.449Z,31.83
2022-08-03T14:18:27.640Z,31.86
2022-08-03T14:23:31.869Z,31.88
2022-08-03T14:28:35.986Z,31.92
2022-08-03T14:33:38.656Z,32.02
2022-08-03T14:38:40.886Z,32.14
2022-08-03T14:44:02.023Z,31.92
2022-08-03T14:50:34.540Z,31.63
2022-08-03T14:54:30.998Z,31.37
2022-08-03T14:59:56.063Z,31.29
2022-08-03T15:04:55.275Z,31.47
2022-08-03T15:09:57.652Z,31.66
2022-08-03T15:14:59.942Z,31.81
2022-08-03T15:20:22.495Z,31.85
2022-08-03T15:26:31.864Z,31.78
2022-08-03T15:30:46.480Z,31.70
2022-08-03T15:35:49.925Z,31.68
2022-08-03T15:40:54.859Z,31.54
2022-08-03T15:51:20.315Z,31.35
2022-08-03T15:56:22.180Z,31.36
2022-08-03T16:01:25.550Z,31.48
2022-08-03T16:06:29.714Z,31.54
2022-08-03T16:11:37.827Z,31.53
2022-08-03T16:16:41.230Z,31.46
2022-08-03T16:21:48.908Z,31.40
2022-08-03T16:26:52.887Z,31.35
2022-08-03T16:31:54.936Z,31.31
2022-08-03T16:36:56.787Z,31.24
2022-08-03T16:42:01.136Z,31.19
2022-08-03T16:47:04.042Z,31.13
2022-08-03T16:52:07.178Z,31.10
2022-08-03T16:57:09.973Z,31.06
2022-08-03T17:02:26.129Z,31.06
2022-08-03T17:07:30.297Z,31.04
2022-08-03T17:12:32.662Z,30.99
2022-08-03T17:17:37.598Z,30.92
2022-08-03T17:23:04.049Z,30.87
2022-08-03T17:28:48.572Z,30.76
2022-08-03T17:33:38.518Z,30.67
2022-08-03T17:38:41.916Z,30.59
2022-08-03T17:44:16.046Z,30.51
2022-08-03T17:49:24.655Z,30.43
2022-08-03T17:55:55.276Z,30.29
2022-08-03T18:00:32.836Z,30.13
2022-08-03T18:06:11.057Z,29.97
2022-08-03T18:11:16.840Z,29.83
2022-08-03T18:16:46.314Z,29.69
2022-08-03T18:22:03.740Z,29.57
2022-08-03T18:27:10.826Z,29.50
2022-08-03T18:37:51.994Z,29.44
2022-08-03T18:42:54.882Z,29.38
2022-08-03T18:48:11.216Z,29.30
2022-08-03T18:54:02.493Z,29.22
2022-08-03T18:59:02.585Z,29.15
2022-08-03T19:04:19.236Z,29.11
2022-08-03T19:09:48.925Z,29.06
2022-08-03T19:15:00.486Z,28.96
2022-08-03T19:20:06.509Z,28.88
2022-08-03T19:25:12.155Z,28.77
2022-08-03T19:30:33.476Z,28.67
2022-08-03T19:35:52.198Z,28.58
2022-08-03T19:41:02.670Z,28.50
2022-08-03T19:46:14.160Z,28.44
2022-08-03T19:51:16.546Z,28.38
2022-08-03T19:56:24.207Z,28.33
2022-08-03T20:01:28.231Z,28.28
2022-08-03T20:06:31.343Z,28.20
2022-08-03T20:11:33.948Z,28.11
2022-08-03T20:16:48.975Z,28.03
2022-08-03T20:21:54.600Z,27.96
2022-08-03T20:27:01.483Z,27.88
2022-08-03T20:32:03.458Z,27.82
2022-08-03T20:37:07.485Z,27.73
2022-08-03T20:42:14.137Z,27.65
2022-08-03T20:47:24.251Z,27.56
2022-08-03T20:52:26.358Z,27.48
2022-08-03T20:57:28.812Z,27.40
2022-08-03T21:02:35.437Z,27.33
2022-08-03T21:13:04.092Z,29.47
2022-08-03T21:13:08.100Z,27.26
2022-08-03T21:18:25.514Z,27.14
2022-08-03T21:23:40.296Z,27.07
2022-08-03T21:28:52.862Z,27.02
2022-08-03T21:34:01.267Z,26.97
2022-08-03T21:39:05.961Z,26.93
2022-08-03T21:44:08.677Z,26.86
2022-08-03T21:50:07.931Z,26.82
2022-08-03T21:54:43.876Z,26.77
2022-08-03T21:59:53.919Z,26.73
2022-08-03T22:04:57.297Z,26.70
2022-08-03T22:10:01.797Z,26.70
2022-08-03T22:15:07.194Z,26.70
2022-08-03T22:20:14.376Z,26.72
2022-08-03T22:25:16.515Z,26.74
2022-08-03T22:30:19.667Z,26.73
2022-08-03T22:35:24.175Z,26.71
2022-08-03T22:40:28.127Z,26.69
2022-08-03T22:46:07.356Z,26.68
2022-08-03T22:50:51.920Z,26.65
2022-08-03T22:55:55.796Z,26.62
2022-08-03T23:01:26.389Z,26.60
2022-08-03T23:06:36.264Z,26.57
2022-08-03T23:11:43.059Z,26.54
2022-08-03T23:16:50.550Z,26.53
2022-08-03T23:22:03.968Z,26.54
2022-08-03T23:27:08.697Z,26.53
2022-08-03T23:32:13.159Z,26.54
2022-08-03T23:37:15.911Z,26.53
2022-08-03T23:42:19.592Z,26.52
2022-08-03T23:47:22.031Z,26.50
2022-08-03T23:52:51.892Z,26.49
2022-08-03T23:58:12.640Z,26.46
